Date,TemperatureHighF,TemperatureAvgF,TemperatureLowF,DewpointHighF,DewpointAvgF,DewpointLowF,HumidityHigh,HumidityAvg,HumidityLow,PressureMaxIn,PressureMinIn,WindSpeedMaxMPH,WindSpeedAvgMPH,GustSpeedMaxMPH,PrecipitationSumIn
2013-4-28,81.3,63.6,48.9,53.2,47.6,42.6,80,59,36,29.88,29.63,0,0,0,0.00
2013-4-29,77.7,61.1,45.7,54.7,46.3,39.6,80,61,36,29.82,29.53,0,0,0,0.00
2013-4-30,68.4,62.9,54.3,58.3,46.0,32.5,83,57,28,29.97,29.41,0,0,0,0.00
2013-5-1,54.1,40.8,33.3,36.0,32.1,28.3,88,72,50,30.44,29.96,0,0,0,0.00
2013-5-2,48.9,40.2,34.9,29.4,26.9,23.9,73,60,45,30.51,30.39,0,0,0,0.00
2013-5-3,37.6,34.8,31.3,32.0,27.5,22.6,85,75,61,30.39,30.13,0,0,0,0.00
2013-5-4,47.8,38.9,32.7,40.9,34.7,29.3,89,85,76,30.16,30.08,0,0,0,0.00
2013-5-5,66.9,50.2,37.9,51.0,41.7,34.6,88,74,55,30.16,30.06,0,0,0,0.00
2013-5-6,77.5,60.5,44.2,53.4,47.2,40.9,88,64,39,30.10,29.99,0,0,0,0.00
2013-5-7,80.4,65.6,50.9,55.7,49.2,45.0,81,58,36,30.06,29.94,0,0,0,0.00
2013-5-8,79.0,64.9,57.7,54.3,51.1,47.2,86,63,40,30.00,29.93,0,0,0,0.00
2013-5-9,61.7,54.1,44.4,54.5,47.1,30.6,86,77,58,30.09,29.94,0,0,0,0.00
2013-5-10,70.0,52.6,37.2,36.4,30.7,28.3,71,46,24,30.10,29.86,0,0,0,0.00
2013-5-11,56.5,47.4,39.6,39.7,27.5,21.2,67,47,32,30.16,29.86,0,0,0,0.00
2013-5-12,61.9,46.6,33.1,28.3,23.8,20.7,66,44,22,30.22,30.07,0,0,0,0.00
2013-5-13,76.8,57.2,39.6,48.6,36.3,23.4,58,47,36,30.09,29.64,0,0,0,0.00
2013-5-14,95.9,74.0,52.9,60.1,47.1,32.2,68,43,17,29.70,29.46,0,0,0,0.00
2013-5-15,81.3,66.8,53.4,50.9,46.5,41.6,67,50,34,29.92,29.69,0,0,0,0.00
2013-5-16,84.7,70.3,54.0,50.4,45.2,33.7,68,43,27,29.91,29.83,0,0,0,0.00
2013-5-17,65.8,58.3,55.8,54.3,50.3,38.9,91,76,38,29.98,29.88,0,0,0,0.00
2013-5-18,83.8,66.3,55.9,69.0,59.8,53.3,94,81,58,29.98,29.77,0,0,0,0.00
2013-5-19,81.0,69.1,63.1,69.0,63.5,60.7,93,83,65,29.80,29.54,0,0,0,0.00
2013-5-20,73.8,66.2,59.5,62.7,59.8,55.2,94,80,62,29.57,29.49,0,0,0,0.00
2013-5-21,61.5,56.6,48.0,58.3,53.6,45.6,92,90,84,29.71,29.51,0,0,0,0.00
2013-5-22,52.7,48.9,45.1,49.5,46.0,43.3,93,90,75,29.99,29.70,0,0,0,0.00
2013-5-23,70.9,54.6,44.2,43.8,38.2,31.6,85,57,30,30.32,29.99,0,0,0,0.00
2013-5-24,72.3,56.0,40.3,49.1,40.5,29.1,82,57,40,30.36,30.13,0,0,0,0.00
2013-5-25,62.6,55.8,52.5,51.5,48.3,44.0,86,76,65,30.23,30.19,0,0,0,0.00
2013-5-26,57.4,54.6,51.1,49.1,44.8,41.1,76,70,60,30.20,30.01,0,0,0,0.00
2013-5-27,64.8,57.2,53.4,55.3,51.6,47.9,90,82,69,30.03,29.82,0,0,0,0.00
2013-5-28,62.6,57.2,53.4,57.0,53.7,50.5,92,88,82,29.82,29.71,0,0,0,0.00
2013-5-29,78.6,65.8,53.2,71.2,61.2,50.9,94,85,74,29.82,29.64,0,0,0,0.00
2013-5-30,77.5,69.0,63.0,66.0,63.3,60.3,94,83,66,29.67,29.52,0,0,0,0.00
2013-5-31,77.4,67.8,61.0,61.4,56.8,52.5,92,70,49,29.56,29.51,0,0,0,0.00
2013-6-1,74.1,60.5,51.4,61.4,52.4,43.8,86,75,56,29.94,29.54,0,0,0,0.00
2013-6-2,70.3,57.4,46.6,45.8,43.7,40.8,81,62,41,30.08,29.94,0,0,0,0.00
2013-6-3,72.3,60.6,46.8,50.4,45.9,41.8,85,60,42,30.06,29.91,0,0,0,0.00
2013-6-4,63.9,59.3,54.5,54.3,50.3,46.0,87,72,57,30.06,29.96,0,0,0,0.00
2013-6-5,69.8,57.9,53.2,61.1,53.3,48.8,92,85,72,30.03,29.93,0,0,0,0.00
2013-6-6,57.9,54.0,50.7,52.3,50.1,48.0,91,87,80,30.03,29.96,0,0,0,0.00
2013-6-7,71.2,59.4,52.7,55.7,51.9,49.7,90,77,56,30.05,29.91,0,0,0,0.00
2013-6-8,74.1,63.8,53.4,57.7,54.0,49.6,87,72,54,29.91,29.87,0,0,0,0.00
2013-6-9,70.3,61.6,56.5,62.9,57.2,53.8,91,86,75,29.88,29.76,0,0,0,0.00
2013-6-10,82.8,68.4,61.2,65.9,61.3,57.3,94,80,55,29.86,29.80,0,0,0,0.00
2013-6-11,79.3,68.0,58.5,69.4,62.6,55.3,91,83,69,29.90,29.80,0,0,0,0.00
2013-6-12,75.9,66.3,59.7,66.3,60.7,54.1,95,82,68,29.94,29.77,0,0,0,0.00
2013-6-13,83.8,69.2,56.1,59.6,55.3,50.2,81,63,43,30.10,29.93,0,0,0,0.00
2013-6-14,82.2,70.3,58.5,64.5,58.3,50.2,77,66,54,30.06,29.87,0,0,0,0.00
2013-6-15,83.8,71.4,64.0,69.3,64.3,59.6,90,79,59,29.91,29.85,0,0,0,0.00
2013-6-16,88.3,71.7,59.5,63.2,56.3,52.0,87,62,31,29.93,29.85,0,0,0,0.00
2013-6-17,84.0,72.3,60.4,61.1,57.5,54.3,81,61,41,30.01,29.87,0,0,0,0.00
2013-6-18,83.8,69.4,57.4,62.1,55.9,49.5,75,63,46,30.09,30.00,0,0,0,0.00
2013-6-19,88.9,74.7,61.2,67.3,60.1,53.6,79,62,42,30.05,29.93,0,0,0,0.00
2013-6-20,92.8,80.8,69.6,71.7,65.2,58.4,76,60,44,29.99,29.86,0,0,0,0.00
2013-6-21,86.0,73.9,63.3,71.9,65.7,59.6,90,77,61,30.03,29.76,0,0,0,0.00
2013-6-22,86.7,73.1,65.1,72.4,66.9,62.2,93,82,62,29.99,29.82,0,0,0,0.00
2013-6-23,85.8,76.3,67.6,70.9,67.8,63.3,94,76,56,29.89,29.68,0,0,0,0.00
2013-6-24,84.9,74.2,64.4,72.7,67.0,61.3,90,79,65,29.90,29.80,0,0,0,0.00
2013-6-25,91.6,77.7,64.9,76.8,69.6,62.2,91,77,62,29.83,29.71,0,0,0,0.00
2013-6-26,88.3,79.7,72.9,76.6,70.7,64.6,92,76,53,29.82,29.66,0,0,0,0.00
2013-6-27,86.7,78.5,70.0,67.5,62.5,56.8,83,60,38,29.84,29.80,0,0,0,0.00
2013-6-28,80.1,72.2,65.8,64.4,60.5,56.9,88,67,54,29.83,29.77,0,0,0,0.00
2013-6-29,79.5,70.0,63.3,63.5,59.4,51.3,90,71,45,29.98,29.76,0,0,0,0.00
2013-6-30,86.2,70.9,56.8,60.5,55.3,51.1,84,61,37,30.11,29.98,0,0,0,0.00
2013-7-1,88.0,74.7,61.0,64.3,59.0,55.3,87,61,37,30.18,30.11,0,0,0,0.00
2013-7-2,88.3,74.7,63.0,58.6,56.6,54.8,80,56,36,30.15,30.04,0,0,0,0.00
2013-7-3,90.7,74.4,61.5,63.4,58.8,55.6,86,62,34,30.07,29.95,0,0,0,0.00
2013-7-4,93.6,78.3,63.7,66.8,60.0,55.4,77,56,33,29.96,29.84,0,0,0,0.00
2013-7-5,89.1,79.3,68.2,68.5,62.7,56.1,72,57,45,29.90,29.79,0,0,0,0.00
2013-7-6,92.3,80.9,72.7,71.8,66.2,61.5,68,61,50,29.88,29.80,0,0,0,0.00
2013-7-7,95.0,82.1,71.6,75.6,69.9,65.8,96,68,51,29.89,29.81,0,0,0,0.00
2013-7-8,88.6,76.8,68.2,74.6,69.7,66.5,97,80,55,30.00,29.88,0,0,0,0.00
2013-7-9,84.9,77.8,69.3,73.0,69.4,64.3,93,76,61,29.95,29.73,0,0,0,0.00
2013-7-10,81.6,72.0,61.3,64.5,59.4,56.3,85,66,45,30.05,29.93,0,0,0,0.00
2013-7-11,88.1,75.1,61.9,65.0,60.9,57.3,88,64,39,30.11,29.96,0,0,0,0.00
2013-7-12,90.2,78.2,68.4,68.0,62.2,57.5,70,59,45,30.00,29.88,0,0,0,0.00
2013-7-13,81.7,73.1,66.6,71.8,65.0,59.0,93,76,60,30.07,29.90,0,0,0,0.00
2013-7-14,88.6,77.2,69.3,72.1,66.6,60.7,83,71,52,30.17,30.04,0,0,0,0.00
2013-7-15,90.3,79.8,69.1,72.3,68.3,63.7,84,69,52,30.23,30.15,0,0,0,0.00
2013-7-16,93.6,83.6,73.6,76.7,72.7,69.8,89,71,52,30.21,30.16,0,0,0,0.00
2013-7-17,94.8,84.3,74.3,74.8,71.9,68.2,81,67,50,30.24,30.10,0,0,0,0.00
2013-7-18,94.5,84.7,75.4,76.3,72.4,69.9,84,68,49,30.10,29.77,0,0,0,0.00
2013-7-19,84.1,78.8,70.7,71.0,65.4,59.7,81,64,48,29.92,29.73,0,0,0,0.00
2013-7-20,83.1,72.9,64.6,67.6,61.8,57.3,85,69,52,29.96,29.88,0,0,0,0.00
2013-7-21,84.6,72.6,60.1,70.5,62.4,52.9,86,71,60,29.96,29.79,0,0,0,0.00
2013-7-22,85.8,74.7,66.4,74.0,65.6,57.2,91,74,54,29.87,29.68,0,0,0,0.00
2013-7-23,76.9,68.3,59.5,58.0,55.9,52.5,85,66,46,30.02,29.86,0,0,0,0.00
2013-7-24,81.8,69.5,61.5,65.0,58.3,54.0,79,69,44,30.08,29.97,0,0,0,0.00
2013-7-25,83.0,73.0,62.1,69.4,62.2,56.9,86,70,47,29.98,29.91,0,0,0,0.00
2013-7-26,70.7,64.5,55.8,64.0,55.9,48.4,86,74,61,30.08,29.91,0,0,0,0.00
2013-7-27,66.4,58.2,51.6,50.8,48.7,47.2,86,71,55,30.08,29.94,0,0,0,0.00
2013-7-28,78.4,61.9,49.1,59.0,51.1,44.5,85,69,50,30.06,29.96,0,0,0,0.00
2013-7-29,79.0,67.2,54.5,62.1,56.3,50.4,87,69,49,30.12,30.06,0,0,0,0.00
2013-7-30,74.3,68.1,64.0,65.9,61.9,58.1,89,81,72,30.10,30.03,0,0,0,0.00
2013-7-31,80.6,68.9,61.0,67.9,60.5,52.8,94,76,50,30.08,29.99,0,0,0,0.00
2013-8-1,82.8,69.9,56.5,62.5,56.8,50.7,82,65,48,30.04,29.86,0,0,0,0.00
2013-8-2,78.4,69.2,59.4,61.8,56.3,51.8,83,65,42,30.04,29.86,0,0,0,0.00
2013-8-3,78.0,67.5,56.5,59.3,54.5,50.8,86,66,41,30.19,30.04,0,0,0,0.00
2013-8-4,78.1,66.1,56.1,62.8,55.3,51.0,86,69,48,30.22,29.99,0,0,0,0.00
2013-8-5,81.3,72.7,61.5,69.7,63.9,55.6,92,74,59,30.01,29.79,0,0,0,0.00
2013-8-6,84.2,69.6,58.6,70.6,61.9,55.3,90,78,55,29.85,29.67,0,0,0,0.00
2013-8-7,76.8,66.8,60.1,59.5,56.7,52.3,93,72,45,30.03,29.79,0,0,0,0.00
2013-8-8,76.8,65.4,57.6,61.6,57.6,53.1,86,77,58,30.06,29.98,0,0,0,0.00
2013-8-9,74.7,66.3,58.8,60.4,56.1,51.2,92,71,50,30.12,30.00,0,0,0,0.00
2013-8-10,76.6,68.0,60.6,58.3,56.0,54.3,84,66,49,30.19,30.07,0,0,0,0.00
2013-8-11,82.0,71.1,64.8,68.5,62.2,57.3,85,74,57,30.09,29.99,0,0,0,0.00
2013-8-12,78.4,69.4,60.1,62.3,58.7,54.5,90,70,49,30.06,30.00,0,0,0,0.00
2013-8-13,75.7,66.4,57.4,57.4,53.4,48.4,87,65,41,30.19,30.06,0,0,0,0.00
2013-8-14,77.7,65.9,55.2,58.6,53.4,50.1,87,66,43,30.20,30.09,0,0,0,0.00
2013-8-15,78.6,66.4,54.8,63.3,56.1,49.6,85,70,50,30.13,30.07,0,0,0,0.00
2013-8-16,80.1,68.6,56.9,62.6,57.2,52.2,87,68,46,30.19,30.12,0,0,0,0.00
2013-8-17,82.2,69.1,56.9,62.7,57.3,52.4,86,68,47,30.19,30.09,0,0,0,0.00
2013-8-18,84.7,70.3,57.8,63.9,58.1,52.9,84,67,48,30.13,30.00,0,0,0,0.00
2013-8-19,87.1,74.3,64.5,72.5,65.0,57.9,82,73,60,30.03,29.90,0,0,0,0.00
2013-8-20,89.8,78.2,69.6,76.4,70.1,64.8,87,77,63,29.92,29.86,0,0,0,0.00
2013-8-21,87.3,78.2,70.9,77.3,71.9,64.4,92,81,68,30.00,29.84,0,0,0,0.00
2013-8-22,85.8,75.1,66.0,64.3,57.4,52.0,74,55,38,30.11,30.00,0,0,0,0.00
2013-8-23,86.7,73.2,62.1,70.5,61.9,51.4,83,68,57,30.14,30.03,0,0,0,0.00
2013-8-24,89.2,78.2,70.0,74.6,69.9,65.6,87,76,60,30.05,29.93,0,0,0,0.00
2013-8-25,94.8,84.3,76.1,78.3,73.9,70.4,84,72,57,30.00,29.93,0,0,0,0.00
2013-8-26,94.3,84.0,75.6,80.1,75.5,72.0,89,76,61,29.98,29.84,0,0,0,0.00
2013-8-27,92.5,82.9,75.0,80.2,75.3,71.3,88,78,66,29.92,29.80,0,0,0,0.00
2013-8-28,92.1,80.6,72.7,77.7,72.9,69.8,93,78,59,30.01,29.91,0,0,0,0.00
2013-8-29,94.3,82.7,75.0,78.9,73.3,68.8,92,75,54,30.00,29.85,0,0,0,0.00
2013-8-30,84.7,76.5,71.2,71.3,67.9,63.6,88,75,59,29.94,29.83,0,0,0,0.00
2013-8-31,89.2,74.3,64.9,72.9,66.2,61.0,89,77,57,29.90,29.73,0,0,0,0.00
2013-9-1,74.3,68.2,60.1,64.8,60.9,54.3,89,78,64,29.99,29.74,0,0,0,0.00
2013-9-2,68.7,59.4,52.3,56.4,52.9,48.7,90,80,63,30.09,29.98,0,0,0,0.00
2013-9-3,78.6,63.6,50.7,62.9,55.5,47.5,91,76,55,30.09,29.99,0,0,0,0.00
2013-9-4,84.9,71.7,60.1,69.1,63.1,56.6,90,75,57,30.14,30.00,0,0,0,0.00
2013-9-5,85.5,73.2,63.7,70.8,63.0,55.9,85,71,61,30.20,30.09,0,0,0,0.00
2013-9-6,90.5,78.4,69.6,72.4,68.8,65.7,93,74,53,30.09,29.86,0,0,0,0.00
2013-9-7,91.4,79.1,68.4,73.2,68.8,63.6,90,72,51,30.00,29.86,0,0,0,0.00
2013-9-8,80.6,72.0,66.4,68.5,63.4,58.9,83,74,66,30.03,29.88,0,0,0,0.00
2013-9-9,92.5,77.8,68.4,76.9,70.0,64.8,93,78,52,29.88,29.63,0,0,0,0.00
2013-9-10,82.2,73.4,67.3,69.2,65.9,60.8,90,78,62,29.98,29.77,0,0,0,0.00
2013-9-11,82.8,72.0,62.4,64.1,58.9,51.6,88,66,39,30.06,29.98,0,0,0,0.00
2013-9-12,74.3,64.0,55.0,57.3,50.9,46.9,84,64,45,30.22,30.06,0,0,0,0.00
2013-9-13,70.7,59.4,49.3,51.3,47.5,44.0,83,66,48,30.27,30.07,0,0,0,0.00
2013-9-14,72.9,59.5,49.5,55.0,50.2,43.6,90,73,50,30.08,29.88,0,0,0,0.00
2013-9-15,66.7,59.5,52.3,57.6,54.0,46.0,92,83,67,30.30,29.87,0,0,0,0.00
2013-9-16,67.3,54.8,44.6,52.2,45.7,39.9,85,72,54,30.38,30.23,0,0,0,0.00
2013-9-17,67.8,57.1,48.4,57.3,51.2,43.4,93,81,68,30.23,29.93,0,0,0,0.00
2013-9-18,79.3,68.6,59.4,72.3,65.5,57.3,97,90,77,29.93,29.70,0,0,0,0.00
2013-9-19,76.1,70.2,63.0,71.4,65.9,54.9,93,86,74,29.82,29.65,0,0,0,0.00
2013-9-20,64.6,58.0,50.9,55.6,51.8,46.7,91,80,63,29.94,29.80,0,0,0,0.00
2013-9-21,64.2,54.0,46.2,50.6,47.2,43.8,91,79,59,29.99,29.90,0,0,0,0.00
2013-9-22,74.8,59.7,47.5,59.4,51.6,44.2,89,76,57,29.95,29.83,0,0,0,0.00
2013-9-23,73.9,62.8,54.0,57.9,52.9,48.9,84,71,53,29.93,29.85,0,0,0,0.00
2013-9-24,75.6,62.5,51.6,59.6,53.2,47.5,87,73,54,29.96,29.90,0,0,0,0.00
2013-9-25,74.3,62.2,52.3,58.3,53.2,48.5,89,74,54,29.97,29.85,0,0,0,0.00
2013-9-26,80.4,68.0,57.0,64.0,57.6,50.9,81,70,56,29.90,29.80,0,0,0,0.00
2013-9-27,83.7,72.7,66.9,67.4,62.6,59.9,81,71,53,29.91,29.78,0,0,0,0.00
2013-9-28,72.0,61.3,49.5,62.8,54.4,44.1,90,78,69,29.94,29.64,0,0,0,0.00
2013-9-29,75.6,59.2,45.7,54.0,47.3,41.1,85,67,42,29.95,29.78,0,0,0,0.00
2013-9-30,79.0,66.5,57.4,56.8,51.6,46.9,72,59,45,29.78,29.59,0,0,0,0.00
2013-10-1,73.2,65.3,52.9,53.7,46.0,37.9,71,52,29,29.99,29.59,0,0,0,0.00
2013-10-2,75.7,60.2,46.6,54.5,45.5,38.0,89,62,34,30.03,29.82,0,0,0,0.00
2013-10-3,60.8,58.1,55.2,57.9,55.5,53.2,93,91,88,29.93,29.83,0,0,0,0.00
2013-10-4,58.5,56.5,54.3,56.1,54.1,52.3,95,92,87,29.96,29.78,0,0,0,0.00
2013-10-5,59.7,54.0,43.2,57.7,49.6,40.5,96,85,66,29.84,29.74,0,0,0,0.00
2013-10-6,54.5,47.0,42.1,51.1,44.7,40.0,94,92,87,29.85,29.69,0,0,0,0.00
2013-10-7,65.3,52.9,43.9,49.1,44.6,41.2,90,75,49,29.97,29.83,0,0,0,0.00
2013-10-8,75.9,61.3,49.3,52.8,47.6,43.0,82,63,42,29.96,29.80,0,0,0,0.00
2013-10-9,74.8,63.2,55.8,56.4,50.9,47.6,76,65,50,30.02,29.91,0,0,0,0.00
2013-10-10,77.0,63.0,52.7,59.1,51.1,45.4,77,66,49,30.03,29.86,0,0,0,0.00
2013-10-11,73.2,64.6,56.3,61.3,55.2,50.5,83,72,57,29.86,29.61,0,0,0,0.00
2013-10-12,57.7,51.0,45.7,50.5,42.8,37.9,83,74,60,30.17,29.71,0,0,0,0.00
2013-10-13,59.0,47.8,37.6,42.5,37.7,32.9,85,69,47,30.41,30.17,0,0,0,0.00
2013-10-14,54.9,48.4,42.4,46.5,40.3,36.0,89,74,63,30.37,29.91,0,0,0,0.00
2013-10-15,53.2,50.0,45.5,51.5,47.7,43.3,94,92,89,29.91,29.65,0,0,0,0.00
2013-10-16,53.2,46.3,39.9,43.6,40.4,34.9,94,81,59,29.95,29.83,0,0,0,0.00
2013-10-17,57.4,46.2,40.1,44.9,39.8,34.7,90,79,59,29.87,29.76,0,0,0,0.00
2013-10-18,51.4,43.9,38.3,38.9,35.8,31.6,91,74,53,29.97,29.83,0,0,0,0.00
2013-10-19,47.1,39.5,34.0,40.2,34.6,29.0,88,83,73,29.83,29.68,0,0,0,0.00
2013-10-20,47.1,37.9,32.2,40.7,33.8,28.2,89,85,76,29.87,29.60,0,0,0,0.00
2013-10-21,39.6,35.0,30.6,31.6,24.9,23.0,80,67,57,29.95,29.87,0,0,0,0.00
2013-10-22,40.5,34.3,27.1,32.6,27.8,22.5,86,77,68,30.02,29.94,0,0,0,0.00
2013-10-23,38.3,34.6,32.2,30.2,26.3,22.5,84,72,59,30.09,29.98,0,0,0,0.00
2013-10-24,43.5,37.1,31.3,31.6,28.1,23.0,84,70,59,30.29,30.09,0,0,0,0.00
2013-10-25,56.7,42.9,26.4,43.0,34.4,22.4,86,73,59,30.29,29.78,0,0,0,0.00
2013-10-26,49.8,42.2,35.2,41.1,31.4,27.0,77,66,56,30.09,29.79,0,0,0,0.00
2013-10-27,55.9,41.6,30.7,38.1,31.1,25.2,81,67,50,30.11,29.80,0,0,0,0.00
2013-10-28,42.1,37.2,32.7,30.6,25.9,21.6,80,64,49,30.40,30.11,0,0,0,0.00
2013-10-29,42.6,38.0,32.7,35.7,29.7,24.6,85,72,67,30.37,30.06,0,0,0,0.00
2013-10-30,49.3,44.8,39.7,48.7,42.9,35.6,100,93,85,30.06,29.66,0,0,0,0.00
2013-10-31,48.6,42.1,39.9,48.6,40.2,37.1,100,93,87,29.66,29.41,0,0,0,0.00
2013-11-1,51.4,42.9,37.9,40.3,37.4,33.3,92,82,63,29.85,29.42,0,0,0,0.00
2013-11-2,48.2,39.3,32.7,36.6,33.2,29.8,89,79,64,30.06,29.85,0,0,0,0.00
2013-11-3,54.3,44.3,35.4,39.0,34.6,30.8,86,70,50,30.08,29.87,0,0,0,0.00
2013-11-4,48.7,44.0,34.5,43.7,37.3,30.6,89,78,65,30.16,29.82,0,0,0,0.00
2013-11-5,44.8,35.5,28.9,35.6,30.0,26.0,91,81,59,30.24,30.03,0,0,0,0.00
2013-11-6,36.9,31.9,27.5,30.7,27.1,23.3,91,83,72,30.17,30.03,0,0,0,0.00
2013-11-7,35.8,29.1,23.2,30.8,25.6,20.7,91,87,81,30.24,30.16,0,0,0,0.00
2013-11-8,43.9,35.7,24.4,39.3,29.6,21.9,91,79,61,30.20,29.62,0,0,0,0.00
2013-11-9,43.5,40.3,35.1,39.0,33.3,26.9,87,76,63,30.22,29.65,0,0,0,0.00
2013-11-10,40.3,37.2,33.4,32.0,30.1,27.1,80,75,70,30.33,30.09,0,0,0,0.00
2013-11-11,37.6,24.3,14.7,32.0,14.7,7.9,83,67,57,30.71,30.12,0,0,0,0.00
2013-11-12,27.7,19.0,11.5,14.8,10.9,6.6,81,71,56,30.76,30.42,0,0,0,0.00
2013-11-13,50.5,35.1,21.0,36.7,25.7,14.0,76,69,58,30.42,29.88,0,0,0,0.00
2013-11-14,52.3,40.4,34.2,41.7,33.8,28.9,84,77,66,29.88,29.77,0,0,0,0.00
2013-11-15,53.4,40.7,30.0,42.4,34.8,27.2,90,80,63,29.85,29.64,0,0,0,0.00
2013-11-16,48.6,43.6,38.5,47.2,41.0,34.1,95,90,77,29.65,29.26,0,0,0,0.00
2013-11-17,43.5,38.9,30.9,40.2,34.8,24.5,94,85,77,29.86,29.34,0,0,0,0.00
2013-11-18,34.3,29.1,23.2,25.2,22.1,18.8,83,75,65,30.25,29.85,0,0,0,0.00
2013-11-19,47.1,35.4,22.3,33.1,27.1,18.1,86,72,57,30.25,29.90,0,0,0,0.00
2013-11-20,45.3,42.5,38.3,34.1,31.8,28.4,84,66,55,30.03,29.87,0,0,0,0.00
2013-11-21,38.5,30.7,23.0,34.6,25.9,15.9,89,82,73,30.51,30.03,0,0,0,0.00
2013-11-22,34.0,22.0,12.0,15.9,12.1,3.4,81,67,39,30.63,30.44,0,0,0,0.00
2013-11-23,17.4,11.1,6.1,5.9,2.8,1.1,80,69,54,30.82,30.62,0,0,0,0.00
2013-11-24,31.1,19.3,6.4,17.4,10.2,0.1,77,68,55,30.68,29.98,0,0,0,0.00
2013-11-25,38.5,32.9,27.0,29.6,24.3,17.4,82,71,61,30.09,29.91,0,0,0,0.00
2013-11-26,30.0,20.4,11.8,21.7,9.1,4.5,73,61,53,30.37,30.08,0,0,0,0.00
2013-11-27,25.0,17.2,8.2,13.4,8.8,3.4,81,70,58,30.37,30.06,0,0,0,0.00
2013-11-28,26.4,21.2,12.7,16.3,12.6,7.1,79,69,63,30.49,30.05,0,0,0,0.00
2013-11-29,33.4,22.8,11.3,21.3,15.5,6.3,81,74,60,30.50,30.12,0,0,0,0.00
2013-11-30,40.8,31.2,24.4,30.5,24.4,19.6,85,76,65,30.16,30.02,0,0,0,0.00
2013-12-1,34.9,26.7,18.9,27.8,21.6,15.3,87,81,73,30.19,29.91,0,0,0,0.00
2013-12-2,39.4,33.4,28.0,33.1,29.5,24.1,92,86,76,29.91,29.57,0,0,0,0.00
2013-12-3,36.1,34.4,32.2,34.0,32.2,30.1,93,92,91,29.78,29.59,0,0,0,0.00
2013-12-4,32.2,27.3,11.5,30.1,24.8,7.0,93,90,82,29.77,29.49,0,0,0,0.00
2013-12-5,11.5,4.9,-2.9,7.3,-0.2,-7.1,83,79,73,30.33,29.74,0,0,0,0.00
2013-12-6,2.8,-3.6,-7.8,-3.6,-8.6,-13.0,82,79,74,30.62,30.33,0,0,0,0.00
2013-12-7,0.3,-6.3,-13.0,-7.0,-11.7,-17.5,80,77,71,30.69,30.53,0,0,0,0.00
2013-12-8,16.9,8.4,-3.3,10.1,3.4,-8.2,84,80,74,30.53,30.02,0,0,0,0.00
2013-12-9,11.1,-0.6,-5.3,7.2,-5.7,-10.8,85,79,72,30.11,29.84,0,0,0,0.00
2013-12-10,13.6,7.0,1.8,10.2,1.6,-3.9,86,78,73,30.27,29.76,0,0,0,0.00
2013-12-11,4.3,-3.7,-7.8,-2.3,-10.0,-13.5,77,74,69,30.55,30.27,0,0,0,0.00
2013-12-12,18.9,11.7,1.2,11.5,6.1,-4.5,82,78,72,30.28,30.12,0,0,0,0.00
2013-12-13,18.1,14.3,11.8,10.6,8.5,6.8,84,78,71,30.26,30.10,0,0,0,0.00
2013-12-14,17.8,9.8,-0.8,10.8,4.4,-6.6,83,78,72,30.26,30.08,0,0,0,0.00
2013-12-15,4.8,1.8,-1.7,-2.9,-5.3,-7.5,76,72,66,30.14,30.09,0,0,0,0.00
2013-12-16,21.4,11.1,3.9,18.9,5.7,-3.0,90,79,71,30.10,29.91,0,0,0,0.00
2013-12-17,32.2,22.8,7.7,27.6,16.5,3.0,90,77,65,30.11,29.88,0,0,0,0.00
2013-12-18,35.2,23.8,6.6,27.4,18.4,2.0,85,80,73,30.06,29.65,0,0,0,0.00
2013-12-19,27.0,18.2,15.3,22.1,12.6,9.0,84,79,69,30.07,29.80,0,0,0,0.00
2013-12-20,20.8,16.1,12.7,14.7,11.5,8.8,85,82,76,30.02,29.85,0,0,0,0.00
2013-12-21,23.2,18.9,15.8,16.1,13.7,11.3,83,80,74,29.99,29.85,0,0,0,0.00
2013-12-22,18.1,12.6,1.9,12.6,7.9,-3.2,84,81,76,30.24,29.95,0,0,0,0.00
2013-12-23,1.9,-3.6,-10.3,-3.2,-9.7,-16.5,79,75,69,30.48,30.24,0,0,0,0.00
2013-12-24,11.5,-0.8,-17.1,5.7,-7.2,-22.6,82,74,62,30.46,30.11,0,0,0,0.00
2013-12-25,30.4,16.8,10.2,25.3,11.7,5.7,87,80,67,30.14,30.04,0,0,0,0.00
2013-12-26,30.9,20.1,7.5,24.9,15.7,3.7,88,83,77,30.16,30.05,0,0,0,0.00
2013-12-27,38.5,28.4,13.3,31.6,24.5,9.9,91,86,75,30.15,29.91,0,0,0,0.00
2013-12-28,42.4,29.3,18.5,34.4,25.6,14.1,92,86,71,30.02,29.65,0,0,0,0.00
2013-12-29,18.5,-1.7,-12.6,14.1,-9.1,-19.4,83,70,61,30.32,30.02,0,0,0,0.00
2013-12-30,2.1,-6.8,-14.0,-4.4,-12.4,-19.9,82,76,72,30.28,30.19,0,0,0,0.00
2013-12-31,-0.7,-8.1,-12.3,-6.5,-13.4,-17.9,82,77,67,30.41,30.26,0,0,0,0.00
2014-1-1,1.5,-4.0,-8.0,-7.2,-11.1,-14.3,75,70,65,30.49,30.40,0,0,0,0.00
2014-1-2,-0.2,-7.3,-14.2,-9.9,-15.0,-20.3,75,68,58,30.52,30.38,0,0,0,0.00